sensor_id;sensor_type;location;lat;lon;timestamp;P1;durP1;ratioP1;P2;durP2;ratioP2
71769;SDS011;66386;52.122;5.420;2023-07-20T00:02:25;3.60;;;2.78;;
71769;SDS011;66386;52.122;5.420;2023-07-20T00:04:52;5.20;;;2.72;;
71769;SDS011;66386;52.122;5.420;2023-07-20T00:07:19;4.03;;;2.38;;
71769;SDS011;66386;52.122;5.420;2023-07-20T00:09:45;6.50;;;2.80;;
71769;SDS011;66386;52.122;5.420;2023-07-20T00:12:11;4.95;;;2.70;;
71769;SDS011;66386;52.122;5.420;2023-07-20T00:14:38;3.40;;;2.53;;
71769;SDS011;66386;52.122;5.420;2023-07-20T00:17:05;4.88;;;2.42;;
71769;SDS011;66386;52.122;5.420;2023-07-20T00:19:32;2.53;;;2.08;;
71769;SDS011;66386;52.122;5.420;2023-07-20T00:21:58;3.73;;;2.20;;
71769;SDS011;66386;52.122;5.420;2023-07-20T00:24:25;3.30;;;2.15;;
71769;SDS011;66386;52.122;5.420;2023-07-20T00:26:52;2.13;;;1.83;;
71769;SDS011;66386;52.122;5.420;2023-07-20T00:29:18;2.78;;;1.80;;
71769;SDS011;66386;52.122;5.420;2023-07-20T00:31:45;2.53;;;1.65;;
71769;SDS011;66386;52.122;5.420;2023-07-20T00:34:13;1.90;;;1.17;;
71769;SDS011;66386;52.122;5.420;2023-07-20T00:36:39;2.03;;;1.40;;
71769;SDS011;66386;52.122;5.420;2023-07-20T00:39:06;1.42;;;1.08;;
71769;SDS011;66386;52.122;5.420;2023-07-20T00:41:33;3.17;;;1.02;;
71769;SDS011;66386;52.122;5.420;2023-07-20T00:43:59;1.38;;;0.93;;
71769;SDS011;66386;52.122;5.420;2023-07-20T00:46:26;1.57;;;0.80;;
71769;SDS011;66386;52.122;5.420;2023-07-20T00:48:53;1.10;;;0.73;;
71769;SDS011;66386;52.122;5.420;2023-07-20T00:51:21;1.90;;;0.80;;
71769;SDS011;66386;52.122;5.420;2023-07-20T00:53:49;2.15;;;1.00;;
71769;SDS011;66386;52.122;5.420;2023-07-20T00:56:15;1.30;;;0.95;;
71769;SDS011;66386;52.122;5.420;2023-07-20T00:58:42;2.30;;;1.00;;
71769;SDS011;66386;52.122;5.420;2023-07-20T01:01:09;1.40;;;1.10;;
71769;SDS011;66386;52.122;5.420;2023-07-20T01:03:36;1.00;;;0.60;;
71769;SDS011;66386;52.122;5.420;2023-07-20T01:06:12;1.55;;;0.70;;
71769;SDS011;66386;52.122;5.420;2023-07-20T01:09:08;1.30;;;1.20;;
71769;SDS011;66386;52.122;5.420;2023-07-20T01:14:31;1.50;;;0.75;;
71769;SDS011;66386;52.122;5.420;2023-07-20T01:16:58;1.20;;;0.80;;
71769;SDS011;66386;52.122;5.420;2023-07-20T01:19:25;1.83;;;0.80;;
71769;SDS011;66386;52.122;5.420;2023-07-20T01:24:51;1.97;;;0.63;;
71769;SDS011;66386;52.122;5.420;2023-07-20T01:33:36;1.02;;;0.70;;
71769;SDS011;66386;52.122;5.420;2023-07-20T01:36:04;1.05;;;0.73;;
71769;SDS011;66386;52.122;5.420;2023-07-20T01:38:32;1.07;;;0.67;;
71769;SDS011;66386;52.122;5.420;2023-07-20T01:40:59;3.92;;;0.70;;
71769;SDS011;66386;52.122;5.420;2023-07-20T01:43:26;2.33;;;0.68;;
71769;SDS011;66386;52.122;5.420;2023-07-20T01:45:52;0.95;;;0.68;;
71769;SDS011;66386;52.122;5.420;2023-07-20T01:48:19;0.85;;;0.75;;
71769;SDS011;66386;52.122;5.420;2023-07-20T01:50:46;1.33;;;0.77;;
71769;SDS011;66386;52.122;5.420;2023-07-20T01:53:12;1.23;;;0.70;;
71769;SDS011;66386;52.122;5.420;2023-07-20T01:55:39;1.50;;;0.52;;
71769;SDS011;66386;52.122;5.420;2023-07-20T01:58:05;1.95;;;0.85;;
71769;SDS011;66386;52.122;5.420;2023-07-20T02:00:32;1.75;;;0.73;;
71769;SDS011;66386;52.122;5.420;2023-07-20T02:02:59;1.37;;;0.43;;
71769;SDS011;66386;52.122;5.420;2023-07-20T02:05:25;1.98;;;0.63;;
71769;SDS011;66386;52.122;5.420;2023-07-20T02:07:52;0.82;;;0.70;;
71769;SDS011;66386;52.122;5.420;2023-07-20T02:10:19;1.10;;;0.73;;
71769;SDS011;66386;52.122;5.420;2023-07-20T02:12:45;1.30;;;0.80;;
71769;SDS011;66386;52.122;5.420;2023-07-20T02:15:12;2.80;;;0.90;;
71769;SDS011;66386;52.122;5.420;2023-07-20T02:17:39;0.90;;;0.70;;
71769;SDS011;66386;52.122;5.420;2023-07-20T02:20:07;3.05;;;0.75;;
71769;SDS011;66386;52.122;5.420;2023-07-20T02:22:36;1.77;;;0.98;;
71769;SDS011;66386;52.122;5.420;2023-07-20T02:25:04;1.80;;;1.05;;
71769;SDS011;66386;52.122;5.420;2023-07-20T02:27:35;2.63;;;1.23;;
71769;SDS011;66386;52.122;5.420;2023-07-20T02:30:02;1.58;;;0.88;;
71769;SDS011;66386;52.122;5.420;2023-07-20T02:32:29;0.98;;;0.70;;
71769;SDS011;66386;52.122;5.420;2023-07-20T02:34:57;1.73;;;0.70;;
71769;SDS011;66386;52.122;5.420;2023-07-20T02:37:24;0.88;;;0.55;;
71769;SDS011;66386;52.122;5.420;2023-07-20T02:39:50;0.67;;;0.50;;
71769;SDS011;66386;52.122;5.420;2023-07-20T02:42:17;0.93;;;0.60;;
71769;SDS011;66386;52.122;5.420;2023-07-20T02:44:43;0.70;;;0.70;;
71769;SDS011;66386;52.122;5.420;2023-07-20T02:47:10;1.00;;;0.82;;
71769;SDS011;66386;52.122;5.420;2023-07-20T02:49:37;2.22;;;0.70;;
71769;SDS011;66386;52.122;5.420;2023-07-20T02:52:03;3.03;;;0.50;;
71769;SDS011;66386;52.122;5.420;2023-07-20T02:54:30;1.23;;;0.70;;
71769;SDS011;66386;52.122;5.420;2023-07-20T02:56:56;4.20;;;1.50;;
71769;SDS011;66386;52.122;5.420;2023-07-20T02:59:23;1.45;;;0.70;;
71769;SDS011;66386;52.122;5.420;2023-07-20T03:01:50;1.17;;;0.68;;
71769;SDS011;66386;52.122;5.420;2023-07-20T03:04:16;2.93;;;0.80;;
71769;SDS011;66386;52.122;5.420;2023-07-20T03:06:43;2.85;;;0.85;;
71769;SDS011;66386;52.122;5.420;2023-07-20T03:09:09;1.23;;;0.60;;
71769;SDS011;66386;52.122;5.420;2023-07-20T03:11:36;0.95;;;0.50;;
71769;SDS011;66386;52.122;5.420;2023-07-20T03:14:03;3.30;;;0.70;;
71769;SDS011;66386;52.122;5.420;2023-07-20T03:16:29;0.83;;;0.60;;
71769;SDS011;66386;52.122;5.420;2023-07-20T03:18:59;0.70;;;0.50;;
71769;SDS011;66386;52.122;5.420;2023-07-20T03:21:26;4.25;;;1.00;;
71769;SDS011;66386;52.122;5.420;2023-07-20T03:23:53;1.25;;;0.80;;
71769;SDS011;66386;52.122;5.420;2023-07-20T03:26:19;1.35;;;0.68;;
71769;SDS011;66386;52.122;5.420;2023-07-20T03:28:46;0.97;;;0.70;;
71769;SDS011;66386;52.122;5.420;2023-07-20T03:31:13;1.48;;;0.80;;
71769;SDS011;66386;52.122;5.420;2023-07-20T03:33:42;0.70;;;0.57;;
71769;SDS011;66386;52.122;5.420;2023-07-20T03:36:08;0.77;;;0.50;;
71769;SDS011;66386;52.122;5.420;2023-07-20T03:38:36;2.17;;;0.80;;
71769;SDS011;66386;52.122;5.420;2023-07-20T03:41:02;1.10;;;0.80;;
71769;SDS011;66386;52.122;5.420;2023-07-20T03:43:29;1.27;;;0.50;;
71769;SDS011;66386;52.122;5.420;2023-07-20T03:45:56;0.73;;;0.50;;
71769;SDS011;66386;52.122;5.420;2023-07-20T03:48:25;0.82;;;0.60;;
71769;SDS011;66386;52.122;5.420;2023-07-20T03:50:53;1.38;;;0.60;;
71769;SDS011;66386;52.122;5.420;2023-07-20T03:53:20;0.90;;;0.70;;
71769;SDS011;66386;52.122;5.420;2023-07-20T03:55:48;2.03;;;0.73;;
71769;SDS011;66386;52.122;5.420;2023-07-20T03:58:16;2.85;;;0.82;;
71769;SDS011;66386;52.122;5.420;2023-07-20T04:00:47;2.22;;;0.90;;
71769;SDS011;66386;52.122;5.420;2023-07-20T04:03:19;1.80;;;0.70;;
71769;SDS011;66386;52.122;5.420;2023-07-20T04:05:46;1.30;;;0.90;;
71769;SDS011;66386;52.122;5.420;2023-07-20T04:08:12;1.10;;;0.80;;
71769;SDS011;66386;52.122;5.420;2023-07-20T04:10:45;1.20;;;0.80;;
71769;SDS011;66386;52.122;5.420;2023-07-20T04:13:12;1.90;;;0.98;;
71769;SDS011;66386;52.122;5.420;2023-07-20T04:15:38;1.42;;;0.93;;
71769;SDS011;66386;52.122;5.420;2023-07-20T04:18:05;1.40;;;0.50;;
71769;SDS011;66386;52.122;5.420;2023-07-20T04:20:32;1.58;;;0.90;;
71769;SDS011;66386;52.122;5.420;2023-07-20T04:22:58;3.13;;;1.08;;
71769;SDS011;66386;52.122;5.420;2023-07-20T04:25:25;1.50;;;1.05;;
71769;SDS011;66386;52.122;5.420;2023-07-20T04:27:52;1.10;;;0.80;;
71769;SDS011;66386;52.122;5.420;2023-07-20T04:30:19;1.40;;;0.90;;
71769;SDS011;66386;52.122;5.420;2023-07-20T04:32:48;1.45;;;0.95;;
71769;SDS011;66386;52.122;5.420;2023-07-20T04:35:26;1.50;;;1.05;;
71769;SDS011;66386;52.122;5.420;2023-07-20T04:38:10;1.42;;;0.90;;
71769;SDS011;66386;52.122;5.420;2023-07-20T04:40:37;1.52;;;0.80;;
71769;SDS011;66386;52.122;5.420;2023-07-20T04:43:03;1.00;;;0.90;;
71769;SDS011;66386;52.122;5.420;2023-07-20T04:45:30;1.30;;;0.88;;
71769;SDS011;66386;52.122;5.420;2023-07-20T04:47:57;1.70;;;1.10;;
71769;SDS011;66386;52.122;5.420;2023-07-20T04:50:23;1.42;;;0.93;;
71769;SDS011;66386;52.122;5.420;2023-07-20T04:52:51;1.40;;;0.90;;
71769;SDS011;66386;52.122;5.420;2023-07-20T04:55:18;2.07;;;1.20;;
71769;SDS011;66386;52.122;5.420;2023-07-20T04:57:45;2.30;;;1.00;;
71769;SDS011;66386;52.122;5.420;2023-07-20T05:00:11;2.03;;;1.50;;
71769;SDS011;66386;52.122;5.420;2023-07-20T05:02:39;3.22;;;1.73;;
71769;SDS011;66386;52.122;5.420;2023-07-20T05:05:06;2.95;;;1.42;;
71769;SDS011;66386;52.122;5.420;2023-07-20T05:07:33;1.97;;;1.47;;
71769;SDS011;66386;52.122;5.420;2023-07-20T05:09:59;2.45;;;1.73;;
71769;SDS011;66386;52.122;5.420;2023-07-20T05:12:26;3.15;;;1.70;;
71769;SDS011;66386;52.122;5.420;2023-07-20T05:14:53;2.00;;;1.70;;
71769;SDS011;66386;52.122;5.420;2023-07-20T05:17:19;2.80;;;1.90;;
71769;SDS011;66386;52.122;5.420;2023-07-20T05:19:46;2.80;;;1.90;;
71769;SDS011;66386;52.122;5.420;2023-07-20T05:22:16;3.30;;;1.85;;
71769;SDS011;66386;52.122;5.420;2023-07-20T05:24:42;1.58;;;1.42;;
71769;SDS011;66386;52.122;5.420;2023-07-20T05:27:09;4.10;;;1.55;;
71769;SDS011;66386;52.122;5.420;2023-07-20T05:29:36;2.42;;;1.50;;
71769;SDS011;66386;52.122;5.420;2023-07-20T05:32:02;2.50;;;1.70;;
71769;SDS011;66386;52.122;5.420;2023-07-20T05:34:29;6.35;;;1.77;;
71769;SDS011;66386;52.122;5.420;2023-07-20T05:36:56;2.38;;;1.88;;
71769;SDS011;66386;52.122;5.420;2023-07-20T05:39:22;2.90;;;1.40;;
71769;SDS011;66386;52.122;5.420;2023-07-20T05:41:49;2.38;;;1.50;;
71769;SDS011;66386;52.122;5.420;2023-07-20T05:44:15;1.80;;;1.20;;
71769;SDS011;66386;52.122;5.420;2023-07-20T05:46:42;3.17;;;1.63;;
71769;SDS011;66386;52.122;5.420;2023-07-20T05:49:23;1.92;;;1.23;;
71769;SDS011;66386;52.122;5.420;2023-07-20T05:51:49;3.08;;;1.20;;
71769;SDS011;66386;52.122;5.420;2023-07-20T05:54:16;2.35;;;1.20;;
71769;SDS011;66386;52.122;5.420;2023-07-20T05:56:42;5.50;;;1.30;;
71769;SDS011;66386;52.122;5.420;2023-07-20T05:59:09;1.73;;;1.25;;
71769;SDS011;66386;52.122;5.420;2023-07-20T06:01:35;2.63;;;1.50;;
71769;SDS011;66386;52.122;5.420;2023-07-20T06:04:03;3.95;;;1.40;;
71769;SDS011;66386;52.122;5.420;2023-07-20T06:06:29;2.75;;;1.55;;
71769;SDS011;66386;52.122;5.420;2023-07-20T06:08:56;2.10;;;1.40;;
71769;SDS011;66386;52.122;5.420;2023-07-20T06:11:23;1.33;;;1.17;;
71769;SDS011;66386;52.122;5.420;2023-07-20T06:13:49;2.58;;;1.50;;
71769;SDS011;66386;52.122;5.420;2023-07-20T06:16:19;1.80;;;1.17;;
71769;SDS011;66386;52.122;5.420;2023-07-20T06:18:46;1.55;;;1.08;;
71769;SDS011;66386;52.122;5.420;2023-07-20T06:21:13;2.70;;;1.10;;
71769;SDS011;66386;52.122;5.420;2023-07-20T06:23:40;1.02;;;0.80;;
71769;SDS011;66386;52.122;5.420;2023-07-20T06:26:07;1.38;;;0.70;;
71769;SDS011;66386;52.122;5.420;2023-07-20T06:28:33;1.33;;;0.73;;
71769;SDS011;66386;52.122;5.420;2023-07-20T06:31:03;2.33;;;0.70;;
71769;SDS011;66386;52.122;5.420;2023-07-20T06:33:30;1.93;;;0.90;;
71769;SDS011;66386;52.122;5.420;2023-07-20T06:35:57;1.48;;;0.30;;
71769;SDS011;66386;52.122;5.420;2023-07-20T06:38:24;1.38;;;0.50;;
71769;SDS011;66386;52.122;5.420;2023-07-20T06:40:56;0.93;;;0.40;;
71769;SDS011;66386;52.122;5.420;2023-07-20T06:43:32;0.60;;;0.20;;
71769;SDS011;66386;52.122;5.420;2023-07-20T06:46:01;0.80;;;0.30;;
71769;SDS011;66386;52.122;5.420;2023-07-20T06:48:28;2.15;;;0.30;;
71769;SDS011;66386;52.122;5.420;2023-07-20T06:50:55;0.50;;;0.30;;
71769;SDS011;66386;52.122;5.420;2023-07-20T06:53:22;2.13;;;0.40;;
71769;SDS011;66386;52.122;5.420;2023-07-20T06:55:49;0.82;;;0.40;;
71769;SDS011;66386;52.122;5.420;2023-07-20T06:58:15;0.87;;;0.40;;
71769;SDS011;66386;52.122;5.420;2023-07-20T07:00:42;1.80;;;0.70;;
71769;SDS011;66386;52.122;5.420;2023-07-20T07:03:09;1.50;;;0.52;;
71769;SDS011;66386;52.122;5.420;2023-07-20T07:05:38;0.80;;;0.40;;
71769;SDS011;66386;52.122;5.420;2023-07-20T07:08:09;0.77;;;0.40;;
71769;SDS011;66386;52.122;5.420;2023-07-20T07:10:39;1.07;;;0.40;;
71769;SDS011;66386;52.122;5.420;2023-07-20T07:13:05;1.08;;;0.40;;
71769;SDS011;66386;52.122;5.420;2023-07-20T07:15:32;1.50;;;0.30;;
71769;SDS011;66386;52.122;5.420;2023-07-20T07:17:59;0.60;;;0.35;;
71769;SDS011;66386;52.122;5.420;2023-07-20T07:20:26;0.70;;;0.40;;
71769;SDS011;66386;52.122;5.420;2023-07-20T07:22:58;2.57;;;0.43;;
71769;SDS011;66386;52.122;5.420;2023-07-20T07:25:24;0.80;;;0.60;;
71769;SDS011;66386;52.122;5.420;2023-07-20T07:27:52;1.30;;;0.50;;
71769;SDS011;66386;52.122;5.420;2023-07-20T07:30:20;1.05;;;0.50;;
71769;SDS011;66386;52.122;5.420;2023-07-20T07:32:47;0.82;;;0.40;;
71769;SDS011;66386;52.122;5.420;2023-07-20T07:35:15;0.80;;;0.47;;
71769;SDS011;66386;52.122;5.420;2023-07-20T07:37:42;0.85;;;0.40;;
71769;SDS011;66386;52.122;5.420;2023-07-20T07:40:22;1.05;;;0.50;;
71769;SDS011;66386;52.122;5.420;2023-07-20T07:42:52;0.95;;;0.50;;
71769;SDS011;66386;52.122;5.420;2023-07-20T07:45:22;0.40;;;0.30;;
71769;SDS011;66386;52.122;5.420;2023-07-20T07:47:48;0.60;;;0.57;;
71769;SDS011;66386;52.122;5.420;2023-07-20T07:50:15;0.93;;;0.55;;
71769;SDS011;66386;52.122;5.420;2023-07-20T07:52:42;1.08;;;0.35;;
71769;SDS011;66386;52.122;5.420;2023-07-20T07:55:08;0.85;;;0.40;;
71769;SDS011;66386;52.122;5.420;2023-07-20T07:57:35;1.48;;;0.40;;
71769;SDS011;66386;52.122;5.420;2023-07-20T08:00:01;0.50;;;0.40;;
71769;SDS011;66386;52.122;5.420;2023-07-20T08:02:30;0.88;;;0.38;;
71769;SDS011;66386;52.122;5.420;2023-07-20T08:04:56;2.15;;;0.50;;
71769;SDS011;66386;52.122;5.420;2023-07-20T08:07:23;0.68;;;0.40;;
71769;SDS011;66386;52.122;5.420;2023-07-20T08:09:49;0.93;;;0.43;;
71769;SDS011;66386;52.122;5.420;2023-07-20T08:12:16;1.17;;;0.30;;
71769;SDS011;66386;52.122;5.420;2023-07-20T08:14:44;0.55;;;0.30;;
71769;SDS011;66386;52.122;5.420;2023-07-20T08:17:11;0.80;;;0.40;;
71769;SDS011;66386;52.122;5.420;2023-07-20T08:19:37;0.77;;;0.40;;
71769;SDS011;66386;52.122;5.420;2023-07-20T08:22:07;1.40;;;0.50;;
71769;SDS011;66386;52.122;5.420;2023-07-20T08:24:34;1.03;;;0.40;;
71769;SDS011;66386;52.122;5.420;2023-07-20T08:27:01;0.90;;;0.40;;
71769;SDS011;66386;52.122;5.420;2023-07-20T08:29:28;1.10;;;0.38;;
71769;SDS011;66386;52.122;5.420;2023-07-20T08:31:54;0.95;;;0.43;;
71769;SDS011;66386;52.122;5.420;2023-07-20T08:34:21;2.20;;;0.30;;
71769;SDS011;66386;52.122;5.420;2023-07-20T08:37:00;1.00;;;0.30;;
71769;SDS011;66386;52.122;5.420;2023-07-20T08:39:30;0.60;;;0.30;;
71769;SDS011;66386;52.122;5.420;2023-07-20T08:41:56;1.50;;;0.30;;
71769;SDS011;66386;52.122;5.420;2023-07-20T08:44:31;1.20;;;0.35;;
71769;SDS011;66386;52.122;5.420;2023-07-20T08:47:00;0.95;;;0.30;;
71769;SDS011;66386;52.122;5.420;2023-07-20T08:49:33;0.80;;;0.40;;
71769;SDS011;66386;52.122;5.420;2023-07-20T08:52:00;0.40;;;0.30;;
71769;SDS011;66386;52.122;5.420;2023-07-20T08:54:30;1.02;;;0.40;;
71769;SDS011;66386;52.122;5.420;2023-07-20T08:57:04;0.82;;;0.38;;
71769;SDS011;66386;52.122;5.420;2023-07-20T08:59:31;0.88;;;0.43;;
71769;SDS011;66386;52.122;5.420;2023-07-20T09:02:03;0.40;;;0.30;;
71769;SDS011;66386;52.122;5.420;2023-07-20T09:04:31;1.60;;;0.47;;
71769;SDS011;66386;52.122;5.420;2023-07-20T09:06:58;1.10;;;0.40;;
71769;SDS011;66386;52.122;5.420;2023-07-20T09:09:25;1.40;;;0.30;;
71769;SDS011;66386;52.122;5.420;2023-07-20T09:11:51;0.75;;;0.50;;
71769;SDS011;66386;52.122;5.420;2023-07-20T09:14:18;0.63;;;0.47;;
71769;SDS011;66386;52.122;5.420;2023-07-20T09:16:49;0.55;;;0.40;;
71769;SDS011;66386;52.122;5.420;2023-07-20T09:19:17;0.30;;;0.30;;
71769;SDS011;66386;52.122;5.420;2023-07-20T09:21:44;0.40;;;0.40;;
71769;SDS011;66386;52.122;5.420;2023-07-20T09:24:21;0.77;;;0.45;;
71769;SDS011;66386;52.122;5.420;2023-07-20T09:26:49;0.73;;;0.40;;
71769;SDS011;66386;52.122;5.420;2023-07-20T09:29:19;1.20;;;0.40;;
71769;SDS011;66386;52.122;5.420;2023-07-20T09:32:04;0.93;;;0.40;;
71769;SDS011;66386;52.122;5.420;2023-07-20T09:34:49;2.85;;;0.45;;
71769;SDS011;66386;52.122;5.420;2023-07-20T09:37:21;0.60;;;0.30;;
71769;SDS011;66386;52.122;5.420;2023-07-20T09:39:51;0.93;;;0.40;;
71769;SDS011;66386;52.122;5.420;2023-07-20T09:42:24;0.70;;;0.30;;
71769;SDS011;66386;52.122;5.420;2023-07-20T09:44:55;0.38;;;0.38;;
71769;SDS011;66386;52.122;5.420;2023-07-20T09:47:22;0.98;;;0.30;;
71769;SDS011;66386;52.122;5.420;2023-07-20T09:49:58;0.47;;;0.30;;
71769;SDS011;66386;52.122;5.420;2023-07-20T09:52:29;0.90;;;0.20;;
71769;SDS011;66386;52.122;5.420;2023-07-20T09:54:59;0.40;;;0.20;;
71769;SDS011;66386;52.122;5.420;2023-07-20T09:57:27;0.77;;;0.32;;
71769;SDS011;66386;52.122;5.420;2023-07-20T09:59:54;0.68;;;0.30;;
71769;SDS011;66386;52.122;5.420;2023-07-20T10:02:21;0.60;;;0.30;;
71769;SDS011;66386;52.122;5.420;2023-07-20T10:04:52;2.37;;;0.40;;
71769;SDS011;66386;52.122;5.420;2023-07-20T10:07:21;2.45;;;0.30;;
71769;SDS011;66386;52.122;5.420;2023-07-20T10:09:53;0.50;;;0.20;;
71769;SDS011;66386;52.122;5.420;2023-07-20T10:12:22;1.27;;;0.47;;
71769;SDS011;66386;52.122;5.420;2023-07-20T10:14:54;0.40;;;0.30;;
71769;SDS011;66386;52.122;5.420;2023-07-20T10:17:42;0.57;;;0.20;;
71769;SDS011;66386;52.122;5.420;2023-07-20T10:20:16;1.95;;;0.30;;
71769;SDS011;66386;52.122;5.420;2023-07-20T10:22:49;1.13;;;0.20;;
71769;SDS011;66386;52.122;5.420;2023-07-20T10:25:20;0.50;;;0.20;;
71769;SDS011;66386;52.122;5.420;2023-07-20T10:27:49;0.90;;;0.20;;
71769;SDS011;66386;52.122;5.420;2023-07-20T10:30:16;0.83;;;0.27;;
71769;SDS011;66386;52.122;5.420;2023-07-20T10:32:44;0.40;;;0.20;;
71769;SDS011;66386;52.122;5.420;2023-07-20T10:35:12;0.60;;;0.22;;
71769;SDS011;66386;52.122;5.420;2023-07-20T10:37:53;0.20;;;0.20;;
71769;SDS011;66386;52.122;5.420;2023-07-20T10:42:50;0.27;;;0.20;;
71769;SDS011;66386;52.122;5.420;2023-07-20T10:45:17;0.85;;;0.30;;
71769;SDS011;66386;52.122;5.420;2023-07-20T10:47:47;0.15;;;0.15;;
71769;SDS011;66386;52.122;5.420;2023-07-20T10:50:14;0.43;;;0.20;;
71769;SDS011;66386;52.122;5.420;2023-07-20T10:52:40;0.20;;;0.20;;
71769;SDS011;66386;52.122;5.420;2023-07-20T10:55:10;0.40;;;0.30;;
71769;SDS011;66386;52.122;5.420;2023-07-20T10:57:40;0.88;;;0.30;;
71769;SDS011;66386;52.122;5.420;2023-07-20T11:00:18;1.42;;;0.38;;
71769;SDS011;66386;52.122;5.420;2023-07-20T11:02:46;0.20;;;0.20;;
71769;SDS011;66386;52.122;5.420;2023-07-20T11:08:03;0.33;;;0.20;;
71769;SDS011;66386;52.122;5.420;2023-07-20T11:10:50;0.35;;;0.20;;
71769;SDS011;66386;52.122;5.420;2023-07-20T11:13:59;0.30;;;0.20;;
71769;SDS011;66386;52.122;5.420;2023-07-20T11:16:33;0.60;;;0.20;;
71769;SDS011;66386;52.122;5.420;2023-07-20T11:19:00;0.40;;;0.20;;
71769;SDS011;66386;52.122;5.420;2023-07-20T11:21:27;0.40;;;0.20;;
71769;SDS011;66386;52.122;5.420;2023-07-20T11:23:55;0.88;;;0.20;;
71769;SDS011;66386;52.122;5.420;2023-07-20T11:26:22;0.28;;;0.20;;
71769;SDS011;66386;52.122;5.420;2023-07-20T11:28:51;0.40;;;0.20;;
71769;SDS011;66386;52.122;5.420;2023-07-20T11:31:18;0.30;;;0.20;;
71769;SDS011;66386;52.122;5.420;2023-07-20T11:33:48;1.27;;;0.20;;
71769;SDS011;66386;52.122;5.420;2023-07-20T11:36:17;0.80;;;0.20;;
71769;SDS011;66386;52.122;5.420;2023-07-20T11:38:47;1.33;;;0.20;;
71769;SDS011;66386;52.122;5.420;2023-07-20T11:41:14;1.83;;;0.20;;
71769;SDS011;66386;52.122;5.420;2023-07-20T11:43:40;0.40;;;0.20;;
71769;SDS011;66386;52.122;5.420;2023-07-20T11:46:08;0.73;;;0.20;;
71769;SDS011;66386;52.122;5.420;2023-07-20T11:48:35;1.45;;;0.20;;
71769;SDS011;66386;52.122;5.420;2023-07-20T11:51:02;0.95;;;0.20;;
71769;SDS011;66386;52.122;5.420;2023-07-20T11:53:29;0.40;;;0.20;;
71769;SDS011;66386;52.122;5.420;2023-07-20T11:55:55;0.65;;;0.20;;
71769;SDS011;66386;52.122;5.420;2023-07-20T11:58:23;0.50;;;0.20;;
71769;SDS011;66386;52.122;5.420;2023-07-20T12:00:49;0.57;;;0.35;;
71769;SDS011;66386;52.122;5.420;2023-07-20T12:03:17;0.63;;;0.30;;
71769;SDS011;66386;52.122;5.420;2023-07-20T12:05:44;1.48;;;0.25;;
71769;SDS011;66386;52.122;5.420;2023-07-20T12:08:26;0.40;;;0.20;;
71769;SDS011;66386;52.122;5.420;2023-07-20T12:10:53;0.30;;;0.20;;
71769;SDS011;66386;52.122;5.420;2023-07-20T12:13:19;0.98;;;0.20;;
71769;SDS011;66386;52.122;5.420;2023-07-20T12:15:46;0.30;;;0.20;;
71769;SDS011;66386;52.122;5.420;2023-07-20T12:18:13;0.52;;;0.20;;
71769;SDS011;66386;52.122;5.420;2023-07-20T12:20:40;0.50;;;0.22;;
71769;SDS011;66386;52.122;5.420;2023-07-20T12:23:10;0.50;;;0.50;;
71769;SDS011;66386;52.122;5.420;2023-07-20T12:28:10;1.05;;;0.30;;
71769;SDS011;66386;52.122;5.420;2023-07-20T12:30:41;0.70;;;0.22;;
71769;SDS011;66386;52.122;5.420;2023-07-20T12:33:09;0.40;;;0.20;;
71769;SDS011;66386;52.122;5.420;2023-07-20T12:35:35;1.03;;;0.20;;
71769;SDS011;66386;52.122;5.420;2023-07-20T12:38:02;0.90;;;0.40;;
71769;SDS011;66386;52.122;5.420;2023-07-20T12:40:29;0.30;;;0.20;;
71769;SDS011;66386;52.122;5.420;2023-07-20T12:42:58;0.32;;;0.32;;
71769;SDS011;66386;52.122;5.420;2023-07-20T12:45:25;1.25;;;0.30;;
71769;SDS011;66386;52.122;5.420;2023-07-20T12:47:51;0.40;;;0.30;;
71769;SDS011;66386;52.122;5.420;2023-07-20T12:50:18;0.85;;;0.30;;
71769;SDS011;66386;52.122;5.420;2023-07-20T12:52:45;1.85;;;0.30;;
71769;SDS011;66386;52.122;5.420;2023-07-20T12:55:11;0.73;;;0.30;;
71769;SDS011;66386;52.122;5.420;2023-07-20T12:57:40;1.20;;;0.32;;
71769;SDS011;66386;52.122;5.420;2023-07-20T13:00:08;0.43;;;0.20;;
71769;SDS011;66386;52.122;5.420;2023-07-20T13:02:37;0.40;;;0.30;;
71769;SDS011;66386;52.122;5.420;2023-07-20T13:05:04;0.40;;;0.30;;
71769;SDS011;66386;52.122;5.420;2023-07-20T13:07:35;1.50;;;0.20;;
71769;SDS011;66386;52.122;5.420;2023-07-20T13:10:09;0.32;;;0.20;;
71769;SDS011;66386;52.122;5.420;2023-07-20T13:12:37;0.30;;;0.23;;
71769;SDS011;66386;52.122;5.420;2023-07-20T13:15:05;1.42;;;0.30;;
71769;SDS011;66386;52.122;5.420;2023-07-20T13:17:36;0.82;;;0.30;;
71769;SDS011;66386;52.122;5.420;2023-07-20T13:20:08;0.30;;;0.30;;
71769;SDS011;66386;52.122;5.420;2023-07-20T13:22:36;1.63;;;0.40;;
71769;SDS011;66386;52.122;5.420;2023-07-20T13:25:07;1.13;;;0.30;;
71769;SDS011;66386;52.122;5.420;2023-07-20T13:27:34;0.55;;;0.22;;
71769;SDS011;66386;52.122;5.420;2023-07-20T13:30:00;1.05;;;0.30;;
71769;SDS011;66386;52.122;5.420;2023-07-20T13:32:32;0.52;;;0.30;;
71769;SDS011;66386;52.122;5.420;2023-07-20T13:35:00;0.50;;;0.30;;
71769;SDS011;66386;52.122;5.420;2023-07-20T13:37:27;0.67;;;0.30;;
71769;SDS011;66386;52.122;5.420;2023-07-20T13:39:54;3.45;;;0.40;;
71769;SDS011;66386;52.122;5.420;2023-07-20T13:42:24;0.88;;;0.30;;
71769;SDS011;66386;52.122;5.420;2023-07-20T13:44:50;0.45;;;0.30;;
71769;SDS011;66386;52.122;5.420;2023-07-20T13:47:17;33.58;;;4.03;;
71769;SDS011;66386;52.122;5.420;2023-07-20T13:49:47;6.87;;;0.67;;
71769;SDS011;66386;52.122;5.420;2023-07-20T13:52:14;0.77;;;0.30;;
71769;SDS011;66386;52.122;5.420;2023-07-20T13:54:44;1.15;;;0.40;;
71769;SDS011;66386;52.122;5.420;2023-07-20T13:57:16;0.93;;;0.30;;
71769;SDS011;66386;52.122;5.420;2023-07-20T13:59:43;0.40;;;0.30;;
71769;SDS011;66386;52.122;5.420;2023-07-20T14:02:11;0.70;;;0.30;;
71769;SDS011;66386;52.122;5.420;2023-07-20T14:04:40;1.13;;;0.20;;
71769;SDS011;66386;52.122;5.420;2023-07-20T14:07:10;0.70;;;0.30;;
71769;SDS011;66386;52.122;5.420;2023-07-20T14:09:39;0.77;;;0.30;;
71769;SDS011;66386;52.122;5.420;2023-07-20T14:12:25;0.50;;;0.20;;
71769;SDS011;66386;52.122;5.420;2023-07-20T14:14:53;0.40;;;0.37;;
71769;SDS011;66386;52.122;5.420;2023-07-20T14:17:21;1.45;;;0.40;;
71769;SDS011;66386;52.122;5.420;2023-07-20T14:19:50;0.32;;;0.30;;
71769;SDS011;66386;52.122;5.420;2023-07-20T14:22:17;0.90;;;0.30;;
71769;SDS011;66386;52.122;5.420;2023-07-20T14:24:45;1.05;;;0.30;;
71769;SDS011;66386;52.122;5.420;2023-07-20T14:27:11;1.27;;;0.40;;
71769;SDS011;66386;52.122;5.420;2023-07-20T14:29:40;0.40;;;0.30;;
71769;SDS011;66386;52.122;5.420;2023-07-20T14:32:07;1.27;;;0.90;;
71769;SDS011;66386;52.122;5.420;2023-07-20T14:34:34;1.75;;;0.47;;
71769;SDS011;66386;52.122;5.420;2023-07-20T14:37:05;1.90;;;0.40;;
71769;SDS011;66386;52.122;5.420;2023-07-20T14:39:31;2.43;;;0.30;;
71769;SDS011;66386;52.122;5.420;2023-07-20T14:41:58;1.13;;;0.32;;
71769;SDS011;66386;52.122;5.420;2023-07-20T14:44:25;1.52;;;0.40;;
71769;SDS011;66386;52.122;5.420;2023-07-20T14:46:51;0.82;;;0.30;;
71769;SDS011;66386;52.122;5.420;2023-07-20T14:49:38;0.77;;;0.40;;
71769;SDS011;66386;52.122;5.420;2023-07-20T14:52:05;1.40;;;0.30;;
71769;SDS011;66386;52.122;5.420;2023-07-20T14:54:41;5.82;;;0.93;;
71769;SDS011;66386;52.122;5.420;2023-07-20T14:57:07;1.58;;;0.88;;
71769;SDS011;66386;52.122;5.420;2023-07-20T14:59:40;0.95;;;0.40;;
71769;SDS011;66386;52.122;5.420;2023-07-20T15:02:10;0.30;;;0.30;;
71769;SDS011;66386;52.122;5.420;2023-07-20T15:04:45;1.90;;;0.33;;
71769;SDS011;66386;52.122;5.420;2023-07-20T15:07:13;0.65;;;0.30;;
71769;SDS011;66386;52.122;5.420;2023-07-20T15:09:40;0.80;;;0.30;;
71769;SDS011;66386;52.122;5.420;2023-07-20T15:12:09;0.95;;;0.50;;
71769;SDS011;66386;52.122;5.420;2023-07-20T15:14:39;2.22;;;0.43;;
71769;SDS011;66386;52.122;5.420;2023-07-20T15:17:06;0.60;;;0.40;;